sensor_id;sensor_type;location;lat;lon;timestamp;pressure;altitude;pressure_sealevel;temperature;humidity
46942;BME280;32676;52.630;4.896;2023-04-01T00:00:25;100282.91;;;10.51;88.52
46942;BME280;32676;52.630;4.896;2023-04-01T00:02:51;100276.78;;;10.51;88.76
46942;BME280;32676;52.630;4.896;2023-04-01T00:05:18;100280.19;;;10.53;88.89
46942;BME280;32676;52.630;4.896;2023-04-01T00:07:45;100290.72;;;10.53;88.90
46942;BME280;32676;52.630;4.896;2023-04-01T00:10:13;100285.44;;;10.53;88.92
46942;BME280;32676;52.630;4.896;2023-04-01T00:12:39;100291.59;;;10.53;89.07
46942;BME280;32676;52.630;4.896;2023-04-01T00:15:07;100280.19;;;10.53;89.03
46942;BME280;32676;52.630;4.896;2023-04-01T00:17:35;100288.06;;;10.53;88.89
46942;BME280;32676;52.630;4.896;2023-04-01T00:20:02;100285.59;;;10.50;88.87
46942;BME280;32676;52.630;4.896;2023-04-01T00:22:29;100290.72;;;10.53;88.80
46942;BME280;32676;52.630;4.896;2023-04-01T00:24:55;100294.13;;;10.55;89.11
46942;BME280;32676;52.630;4.896;2023-04-01T00:27:22;100288.97;;;10.53;89.04
46942;BME280;32676;52.630;4.896;2023-04-01T00:29:48;100273.25;;;10.52;88.90
46942;BME280;32676;52.630;4.896;2023-04-01T00:32:14;100274.16;;;10.51;88.94
46942;BME280;32676;52.630;4.896;2023-04-01T00:34:42;100281.91;;;10.54;88.73
46942;BME280;32676;52.630;4.896;2023-04-01T00:37:09;100269.84;;;10.50;88.82
46942;BME280;32676;52.630;4.896;2023-04-01T00:39:36;100262.84;;;10.49;88.82
46942;BME280;32676;52.630;4.896;2023-04-01T00:42:05;100267.22;;;10.50;88.77
46942;BME280;32676;52.630;4.896;2023-04-01T00:44:32;100266.34;;;10.49;88.85
46942;BME280;32676;52.630;4.896;2023-04-01T00:46:59;100257.59;;;10.49;88.89
46942;BME280;32676;52.630;4.896;2023-04-01T00:49:26;100263.72;;;10.49;88.99
46942;BME280;32676;52.630;4.896;2023-04-01T00:51:56;100248.94;;;10.47;89.19
46942;BME280;32676;52.630;4.896;2023-04-01T00:54:24;100248.94;;;10.47;89.13
46942;BME280;32676;52.630;4.896;2023-04-01T00:56:52;100248.94;;;10.47;89.21
46942;BME280;32676;52.630;4.896;2023-04-01T00:59:22;100261.97;;;10.50;89.16
46942;BME280;32676;52.630;4.896;2023-04-01T01:01:50;100270.69;;;10.50;89.18
46942;BME280;32676;52.630;4.896;2023-04-01T01:04:23;100270.69;;;10.50;88.96
46942;BME280;32676;52.630;4.896;2023-04-01T01:06:52;100283.59;;;10.55;89.22
46942;BME280;32676;52.630;4.896;2023-04-01T01:09:28;100298.41;;;10.57;88.96
46942;BME280;32676;52.630;4.896;2023-04-01T01:11:58;100278.34;;;10.55;88.69
46942;BME280;32676;52.630;4.896;2023-04-01T01:14:32;100277.50;;;10.54;88.71
46942;BME280;32676;52.630;4.896;2023-04-01T01:17:02;100280.13;;;10.54;88.77
46942;BME280;32676;52.630;4.896;2023-04-01T01:19:37;100275.81;;;10.53;88.82
46942;BME280;32676;52.630;4.896;2023-04-01T01:25:08;100279.28;;;10.54;88.96
46942;BME280;32676;52.630;4.896;2023-04-01T01:27:36;100278.34;;;10.55;88.65
46942;BME280;32676;52.630;4.896;2023-04-01T01:33:08;100276.66;;;10.54;89.01
46942;BME280;32676;52.630;4.896;2023-04-01T01:35:38;100274.88;;;10.54;88.87
46942;BME280;32676;52.630;4.896;2023-04-01T01:38:08;100277.50;;;10.54;88.83
46942;BME280;32676;52.630;4.896;2023-04-01T01:40:36;100274.81;;;10.56;88.75
46942;BME280;32676;52.630;4.896;2023-04-01T01:43:05;100289.69;;;10.57;88.73
46942;BME280;32676;52.630;4.896;2023-04-01T01:45:33;100267.94;;;10.53;89.03
46942;BME280;32676;52.630;4.896;2023-04-01T01:48:00;100253.19;;;10.49;88.69
46942;BME280;32676;52.630;4.896;2023-04-01T01:50:28;100228.03;;;10.44;89.05
46942;BME280;32676;52.630;4.896;2023-04-01T01:53:02;100210.72;;;10.40;89.16
46942;BME280;32676;52.630;4.896;2023-04-01T01:55:30;100195.06;;;10.36;89.05
46942;BME280;32676;52.630;4.896;2023-04-01T01:57:57;100184.72;;;10.33;89.36
46942;BME280;32676;52.630;4.896;2023-04-01T02:00:25;100176.94;;;10.30;89.30
46942;BME280;32676;52.630;4.896;2023-04-01T02:02:52;100169.03;;;10.30;89.73
46942;BME280;32676;52.630;4.896;2023-04-01T02:05:19;100157.81;;;10.27;89.63
46942;BME280;32676;52.630;4.896;2023-04-01T02:07:48;100151.72;;;10.26;89.72
46942;BME280;32676;52.630;4.896;2023-04-01T02:10:20;100137.81;;;10.24;89.92
46942;BME280;32676;52.630;4.896;2023-04-01T02:12:48;100148.31;;;10.24;90.18
46942;BME280;32676;52.630;4.896;2023-04-01T02:15:16;100148.31;;;10.24;90.05
46942;BME280;32676;52.630;4.896;2023-04-01T02:17:45;100146.53;;;10.25;90.25
46942;BME280;32676;52.630;4.896;2023-04-01T02:20:13;100150.00;;;10.25;90.10
46942;BME280;32676;52.630;4.896;2023-04-01T02:22:42;100137.88;;;10.23;90.06
46942;BME280;32676;52.630;4.896;2023-04-01T02:25:12;100136.09;;;10.23;90.12
46942;BME280;32676;52.630;4.896;2023-04-01T02:27:41;100143.06;;;10.24;90.10
46942;BME280;32676;52.630;4.896;2023-04-01T02:30:09;100141.34;;;10.23;89.92
46942;BME280;32676;52.630;4.896;2023-04-01T02:32:37;100132.66;;;10.21;89.97
46942;BME280;32676;52.630;4.896;2023-04-01T02:35:05;100143.19;;;10.21;90.09
46942;BME280;32676;52.630;4.896;2023-04-01T02:37:32;100133.53;;;10.22;89.88
46942;BME280;32676;52.630;4.896;2023-04-01T02:39:58;100129.09;;;10.22;89.93
46942;BME280;32676;52.630;4.896;2023-04-01T02:42:25;100129.09;;;10.22;90.19
46942;BME280;32676;52.630;4.896;2023-04-01T02:44:53;100115.19;;;10.20;90.02
46942;BME280;32676;52.630;4.896;2023-04-01T02:47:19;100121.38;;;10.19;90.03
46942;BME280;32676;52.630;4.896;2023-04-01T02:49:45;100111.78;;;10.18;90.32
46942;BME280;32676;52.630;4.896;2023-04-01T02:52:12;100106.59;;;10.16;90.18
46942;BME280;32676;52.630;4.896;2023-04-01T02:54:38;100110.09;;;10.17;90.17
46942;BME280;32676;52.630;4.896;2023-04-01T02:57:05;100102.28;;;10.15;90.07
46942;BME280;32676;52.630;4.896;2023-04-01T02:59:31;100096.16;;;10.15;90.31
46942;BME280;32676;52.630;4.896;2023-04-01T03:02:00;100108.38;;;10.16;90.27
46942;BME280;32676;52.630;4.896;2023-04-01T03:04:26;100115.34;;;10.17;90.12
46942;BME280;32676;52.630;4.896;2023-04-01T03:06:52;100110.09;;;10.17;90.02
46942;BME280;32676;52.630;4.896;2023-04-01T03:09:20;100111.78;;;10.18;90.00
46942;BME280;32676;52.630;4.896;2023-04-01T03:11:46;100114.41;;;10.18;89.94
46942;BME280;32676;52.630;4.896;2023-04-01T03:14:12;100107.53;;;10.15;90.10
46942;BME280;32676;52.630;4.896;2023-04-01T03:16:39;100101.41;;;10.15;89.87
46942;BME280;32676;52.630;4.896;2023-04-01T03:19:07;100108.38;;;10.16;90.07
46942;BME280;32676;52.630;4.896;2023-04-01T03:21:33;100103.97;;;10.16;89.74
46942;BME280;32676;52.630;4.896;2023-04-01T03:23:59;100100.50;;;10.16;89.69
46942;BME280;32676;52.630;4.896;2023-04-01T03:26:26;100096.16;;;10.15;89.87
46942;BME280;32676;52.630;4.896;2023-04-01T03:28:53;100103.13;;;10.16;89.69
46942;BME280;32676;52.630;4.896;2023-04-01T03:31:20;100089.22;;;10.14;89.63
46942;BME280;32676;52.630;4.896;2023-04-01T03:33:46;100082.25;;;10.13;89.46
46942;BME280;32676;52.630;4.896;2023-04-01T03:36:14;100072.81;;;10.09;89.47
46942;BME280;32676;52.630;4.896;2023-04-01T03:38:41;100068.50;;;10.08;89.39
46942;BME280;32676;52.630;4.896;2023-04-01T03:41:07;100065.88;;;10.08;89.49
46942;BME280;32676;52.630;4.896;2023-04-01T03:43:37;100052.84;;;10.05;89.30
46942;BME280;32676;52.630;4.896;2023-04-01T03:46:03;100052.84;;;10.05;89.21
46942;BME280;32676;52.630;4.896;2023-04-01T03:48:29;100046.78;;;10.04;89.09
46942;BME280;32676;52.630;4.896;2023-04-01T03:50:56;100044.22;;;10.03;89.26
46942;BME280;32676;52.630;4.896;2023-04-01T03:53:23;100033.81;;;9.99;89.12
46942;BME280;32676;52.630;4.896;2023-04-01T03:55:50;100032.09;;;9.98;89.31
46942;BME280;32676;52.630;4.896;2023-04-01T03:58:16;100027.78;;;9.97;89.29
46942;BME280;32676;52.630;4.896;2023-04-01T04:00:43;100004.28;;;9.94;89.25
46942;BME280;32676;52.630;4.896;2023-04-01T04:03:09;99995.63;;;9.92;89.51
46942;BME280;32676;52.630;4.896;2023-04-01T04:05:35;99995.63;;;9.92;89.44
46942;BME280;32676;52.630;4.896;2023-04-01T04:08:02;100002.59;;;9.93;89.41
46942;BME280;32676;52.630;4.896;2023-04-01T04:10:30;100006.91;;;9.94;89.13
46942;BME280;32676;52.630;4.896;2023-04-01T04:12:57;99999.97;;;9.93;89.37
46942;BME280;32676;52.630;4.896;2023-04-01T04:15:23;100002.59;;;9.93;89.15
46942;BME280;32676;52.630;4.896;2023-04-01T04:17:49;100011.25;;;9.95;89.10
46942;BME280;32676;52.630;4.896;2023-04-01T04:20:16;100017.34;;;9.96;88.91
46942;BME280;32676;52.630;4.896;2023-04-01T04:22:42;100020.81;;;9.96;88.88
46942;BME280;32676;52.630;4.896;2023-04-01T04:25:08;100016.34;;;9.98;89.12
46942;BME280;32676;52.630;4.896;2023-04-01T04:27:36;100016.44;;;9.97;88.98
46942;BME280;32676;52.630;4.896;2023-04-01T04:30:03;100012.94;;;9.96;89.17
46942;BME280;32676;52.630;4.896;2023-04-01T04:32:29;99998.19;;;9.94;89.14
46942;BME280;32676;52.630;4.896;2023-04-01T04:34:56;100002.59;;;9.93;89.22
46942;BME280;32676;52.630;4.896;2023-04-01T04:37:22;99993.00;;;9.92;89.24
46942;BME280;32676;52.630;4.896;2023-04-01T04:39:48;99995.63;;;9.92;89.70
46942;BME280;32676;52.630;4.896;2023-04-01T04:42:15;99994.72;;;9.93;89.67
46942;BME280;32676;52.630;4.896;2023-04-01T04:44:42;99995.63;;;9.92;89.85
46942;BME280;32676;52.630;4.896;2023-04-01T04:47:09;99978.31;;;9.88;89.87
46942;BME280;32676;52.630;4.896;2023-04-01T04:49:35;99973.22;;;9.85;89.87
46942;BME280;32676;52.630;4.896;2023-04-01T04:52:02;99957.53;;;9.84;89.91
46942;BME280;32676;52.630;4.896;2023-04-01T04:54:28;99960.16;;;9.84;89.91
46942;BME280;32676;52.630;4.896;2023-04-01T04:56:55;99947.09;;;9.82;89.80
46942;BME280;32676;52.630;4.896;2023-04-01T04:59:21;99948.03;;;9.81;90.12
46942;BME280;32676;52.630;4.896;2023-04-01T05:01:49;99936.75;;;9.79;90.09
46942;BME280;32676;52.630;4.896;2023-04-01T05:04:15;99931.63;;;9.76;90.27
46942;BME280;32676;52.630;4.896;2023-04-01T05:06:42;99916.00;;;9.73;90.34
46942;BME280;32676;52.630;4.896;2023-04-01T05:09:09;99909.06;;;9.72;90.27
46942;BME280;32676;52.630;4.896;2023-04-01T05:11:37;99909.06;;;9.72;90.46
46942;BME280;32676;52.630;4.896;2023-04-01T05:14:04;99896.94;;;9.69;90.64
46942;BME280;32676;52.630;4.896;2023-04-01T05:16:30;99893.47;;;9.69;90.61
46942;BME280;32676;52.630;4.896;2023-04-01T05:18:58;99893.47;;;9.69;90.60
46942;BME280;32676;52.630;4.896;2023-04-01T05:21:24;99890.91;;;9.67;90.57
46942;BME280;32676;52.630;4.896;2023-04-01T05:23:50;99878.72;;;9.66;90.66
46942;BME280;32676;52.630;4.896;2023-04-01T05:26:17;99876.16;;;9.65;90.70
46942;BME280;32676;52.630;4.896;2023-04-01T05:28:43;99877.06;;;9.64;90.69
46942;BME280;32676;52.630;4.896;2023-04-01T05:31:09;99877.84;;;9.66;90.67
46942;BME280;32676;52.630;4.896;2023-04-01T05:33:37;99872.75;;;9.63;90.65
46942;BME280;32676;52.630;4.896;2023-04-01T05:36:09;99865.78;;;9.61;90.65
46942;BME280;32676;52.630;4.896;2023-04-01T05:38:36;99870.13;;;9.63;90.69
46942;BME280;32676;52.630;4.896;2023-04-01T05:41:02;99862.25;;;9.63;90.69
46942;BME280;32676;52.630;4.896;2023-04-01T05:43:29;99867.50;;;9.63;90.64
46942;BME280;32676;52.630;4.896;2023-04-01T05:45:55;99856.38;;;9.57;90.70
46942;BME280;32676;52.630;4.896;2023-04-01T05:48:22;99872.75;;;9.63;90.69
46942;BME280;32676;52.630;4.896;2023-04-01T05:50:48;99862.31;;;9.61;90.97
46942;BME280;32676;52.630;4.896;2023-04-01T05:53:16;99861.47;;;9.60;90.83
46942;BME280;32676;52.630;4.896;2023-04-01T05:55:42;99858.88;;;9.60;91.10
46942;BME280;32676;52.630;4.896;2023-04-01T05:58:08;99858.00;;;9.60;90.79
46942;BME280;32676;52.630;4.896;2023-04-01T06:00:35;99860.53;;;9.61;90.85
46942;BME280;32676;52.630;4.896;2023-04-01T06:03:02;99866.63;;;9.62;90.85
46942;BME280;32676;52.630;4.896;2023-04-01T06:05:28;99874.44;;;9.64;91.04
46942;BME280;32676;52.630;4.896;2023-04-01T06:07:58;99876.16;;;9.65;91.07
46942;BME280;32676;52.630;4.896;2023-04-01T06:10:28;99881.41;;;9.65;91.21
46942;BME280;32676;52.630;4.896;2023-04-01T06:13:00;99883.09;;;9.66;91.30
46942;BME280;32676;52.630;4.896;2023-04-01T06:15:34;99883.97;;;9.66;91.31
46942;BME280;32676;52.630;4.896;2023-04-01T06:20:48;99869.19;;;9.64;91.23
46942;BME280;32676;52.630;4.896;2023-04-01T06:23:23;99884.03;;;9.65;91.06
46942;BME280;32676;52.630;4.896;2023-04-01T06:26:04;99888.34;;;9.66;91.30
46942;BME280;32676;52.630;4.896;2023-04-01T06:31:17;99890.06;;;9.67;91.05
46942;BME280;32676;52.630;4.896;2023-04-01T06:33:52;99898.72;;;9.69;91.19
46942;BME280;32676;52.630;4.896;2023-04-01T06:36:32;99909.06;;;9.72;91.13
46942;BME280;32676;52.630;4.896;2023-04-01T06:39:09;99909.97;;;9.71;91.14
46942;BME280;32676;52.630;4.896;2023-04-01T06:44:31;99910.81;;;9.71;91.01
46942;BME280;32676;52.630;4.896;2023-04-01T06:47:03;99923.81;;;9.74;91.14
46942;BME280;32676;52.630;4.896;2023-04-01T06:49:36;99929.06;;;9.74;91.04
46942;BME280;32676;52.630;4.896;2023-04-01T06:52:09;99955.06;;;9.80;90.87
46942;BME280;32676;52.630;4.896;2023-04-01T06:54:38;99936.75;;;9.79;90.82
46942;BME280;32676;52.630;4.896;2023-04-01T06:57:19;99942.00;;;9.79;90.69
46942;BME280;32676;52.630;4.896;2023-04-01T06:59:48;99943.69;;;9.80;90.71
46942;BME280;32676;52.630;4.896;2023-04-01T07:02:18;99946.25;;;9.82;90.54
46942;BME280;32676;52.630;4.896;2023-04-01T07:04:47;99954.19;;;9.80;90.51
46942;BME280;32676;52.630;4.896;2023-04-01T07:07:15;99955.91;;;9.81;90.50
46942;BME280;32676;52.630;4.896;2023-04-01T07:09:47;99951.56;;;9.80;90.40
46942;BME280;32676;52.630;4.896;2023-04-01T07:12:16;99954.97;;;9.82;90.34
46942;BME280;32676;52.630;4.896;2023-04-01T07:14:45;99959.38;;;9.82;90.17
46942;BME280;32676;52.630;4.896;2023-04-01T07:17:16;99968.81;;;9.86;90.27
46942;BME280;32676;52.630;4.896;2023-04-01T07:19:44;99980.03;;;9.89;90.44
46942;BME280;32676;52.630;4.896;2023-04-01T07:22:15;99995.69;;;9.91;90.51
46942;BME280;32676;52.630;4.896;2023-04-01T07:24:46;100009.53;;;9.94;90.28
46942;BME280;32676;52.630;4.896;2023-04-01T07:27:13;100013.81;;;9.97;90.13
46942;BME280;32676;52.630;4.896;2023-04-01T07:29:40;100014.66;;;9.97;90.29
46942;BME280;32676;52.630;4.896;2023-04-01T07:32:12;100017.28;;;9.97;90.19
46942;BME280;32676;52.630;4.896;2023-04-01T07:34:46;100018.19;;;9.96;90.01
46942;BME280;32676;52.630;4.896;2023-04-01T07:37:15;100007.69;;;9.96;90.04
46942;BME280;32676;52.630;4.896;2023-04-01T07:39:45;100005.22;;;9.93;89.79
46942;BME280;32676;52.630;4.896;2023-04-01T07:42:20;100006.00;;;9.95;90.14
46942;BME280;32676;52.630;4.896;2023-04-01T07:44:50;100012.16;;;9.94;90.08
46942;BME280;32676;52.630;4.896;2023-04-01T07:50:08;100039.84;;;10.02;90.10
46942;BME280;32676;52.630;4.896;2023-04-01T07:52:39;100057.13;;;10.07;90.11
46942;BME280;32676;52.630;4.896;2023-04-01T07:55:09;100077.00;;;10.13;89.82
46942;BME280;32676;52.630;4.896;2023-04-01T07:57:41;100109.94;;;10.20;89.92
46942;BME280;32676;52.630;4.896;2023-04-01T08:00:10;100134.25;;;10.25;89.95
46942;BME280;32676;52.630;4.896;2023-04-01T08:02:44;100155.91;;;10.30;89.68
46942;BME280;32676;52.630;4.896;2023-04-01T08:05:17;100174.22;;;10.33;89.52
46942;BME280;32676;52.630;4.896;2023-04-01T08:07:45;100183.66;;;10.37;89.51
46942;BME280;32676;52.630;4.896;2023-04-01T08:10:17;100205.41;;;10.41;89.38
46942;BME280;32676;52.630;4.896;2023-04-01T08:12:47;100201.78;;;10.44;89.40
46942;BME280;32676;52.630;4.896;2023-04-01T08:15:19;100220.94;;;10.46;89.03
46942;BME280;32676;52.630;4.896;2023-04-01T08:17:52;100205.34;;;10.43;88.94
46942;BME280;32676;52.630;4.896;2023-04-01T08:20:25;100205.34;;;10.43;88.94
46942;BME280;32676;52.630;4.896;2023-04-01T08:22:53;100209.66;;;10.44;88.96
46942;BME280;32676;52.630;4.896;2023-04-01T08:25:24;100212.28;;;10.44;88.58
46942;BME280;32676;52.630;4.896;2023-04-01T08:27:53;100197.53;;;10.41;88.40
46942;BME280;32676;52.630;4.896;2023-04-01T08:30:21;100201.94;;;10.41;88.34
46942;BME280;32676;52.630;4.896;2023-04-01T08:32:50;100195.84;;;10.38;88.65
46942;BME280;32676;52.630;4.896;2023-04-01T08:35:21;100187.13;;;10.38;88.83
46942;BME280;32676;52.630;4.896;2023-04-01T08:37:53;100175.78;;;10.37;88.98
46942;BME280;32676;52.630;4.896;2023-04-01T08:43:05;100179.31;;;10.36;88.62
46942;BME280;32676;52.630;4.896;2023-04-01T08:45:40;100176.69;;;10.36;88.79
46942;BME280;32676;52.630;4.896;2023-04-01T08:53:55;100181.03;;;10.37;88.83
46942;BME280;32676;52.630;4.896;2023-04-01T08:56:23;100189.69;;;10.40;88.54
46942;BME280;32676;52.630;4.896;2023-04-01T08:58:54;100213.22;;;10.43;88.65
46942;BME280;32676;52.630;4.896;2023-04-01T09:01:29;100207.91;;;10.44;88.60
46942;BME280;32676;52.630;4.896;2023-04-01T09:07:00;100266.03;;;10.57;88.53
46942;BME280;32676;52.630;4.896;2023-04-01T09:09:44;100302.44;;;10.66;88.69
46942;BME280;32676;52.630;4.896;2023-04-01T09:12:19;100338.06;;;10.73;88.36
46942;BME280;32676;52.630;4.896;2023-04-01T09:14:59;100358.81;;;10.80;88.30
46942;BME280;32676;52.630;4.896;2023-04-01T09:17:34;100371.84;;;10.83;88.41
46942;BME280;32676;52.630;4.896;2023-04-01T09:20:09;100385.78;;;10.85;87.98
46942;BME280;32676;52.630;4.896;2023-04-01T09:22:48;100397.88;;;10.89;88.01
46942;BME280;32676;52.630;4.896;2023-04-01T09:25:38;100404.84;;;10.90;87.64
46942;BME280;32676;52.630;4.896;2023-04-01T09:28:12;100404.84;;;10.90;87.58
46942;BME280;32676;52.630;4.896;2023-04-01T09:30:53;100389.19;;;10.87;87.47
46942;BME280;32676;52.630;4.896;2023-04-01T09:33:38;100387.34;;;10.89;87.39
46942;BME280;32676;52.630;4.896;2023-04-01T09:36:10;100413.53;;;10.92;87.44
46942;BME280;32676;52.630;4.896;2023-04-01T09:38:41;100451.75;;;11.01;87.28
46942;BME280;32676;52.630;4.896;2023-04-01T09:41:15;100482.97;;;11.08;87.43
46942;BME280;32676;52.630;4.896;2023-04-01T09:43:53;100507.25;;;11.15;87.43
46942;BME280;32676;52.630;4.896;2023-04-01T09:46:25;100509.81;;;11.17;87.54
46942;BME280;32676;52.630;4.896;2023-04-01T09:49:02;100548.09;;;11.24;87.26
46942;BME280;32676;52.630;4.896;2023-04-01T09:51:37;100573.25;;;11.31;87.44
46942;BME280;32676;52.630;4.896;2023-04-01T09:54:10;100587.19;;;11.33;87.11
46942;BME280;32676;52.630;4.896;2023-04-01T09:56:46;100602.88;;;11.36;86.75
46942;BME280;32676;52.630;4.896;2023-04-01T10:02:26;100655.84;;;11.49;87.23
46942;BME280;32676;52.630;4.896;2023-04-01T10:05:07;100689.75;;;11.57;87.21
46942;BME280;32676;52.630;4.896;2023-04-01T10:07:52;100696.66;;;11.61;86.71
46942;BME280;32676;52.630;4.896;2023-04-01T10:10:36;100714.94;;;11.64;86.44
46942;BME280;32676;52.630;4.896;2023-04-01T10:13:18;100749.78;;;11.70;86.10
46942;BME280;32676;52.630;4.896;2023-04-01T10:18:44;100778.44;;;11.78;85.28
46942;BME280;32676;52.630;4.896;2023-04-01T10:21:21;100793.28;;;11.81;85.34
46942;BME280;32676;52.630;4.896;2023-04-01T10:23:54;100811.50;;;11.85;85.20
46942;BME280;32676;52.630;4.896;2023-04-01T10:26:32;100831.50;;;11.91;85.03
46942;BME280;32676;52.630;4.896;2023-04-01T10:31:59;100807.97;;;11.86;84.91
46942;BME280;32676;52.630;4.896;2023-04-01T10:34:51;100791.50;;;11.81;84.63
46942;BME280;32676;52.630;4.896;2023-04-01T10:40:13;100756.63;;;11.75;84.22
46942;BME280;32676;52.630;4.896;2023-04-01T10:48:25;100704.41;;;11.64;84.83
46942;BME280;32676;52.630;4.896;2023-04-01T10:51:11;100698.34;;;11.62;85.16
46942;BME280;32676;52.630;4.896;2023-04-01T10:53:42;100693.19;;;11.59;84.99
46942;BME280;32676;52.630;4.896;2023-04-01T11:02:00;100688.91;;;11.56;85.30
46942;BME280;32676;52.630;4.896;2023-04-01T11:07:40;100662.66;;;11.55;85.46
46942;BME280;32676;52.630;4.896;2023-04-01T11:10:21;100667.06;;;11.54;85.39
46942;BME280;32676;52.630;4.896;2023-04-01T11:15:56;100656.59;;;11.52;85.70
46942;BME280;32676;52.630;4.896;2023-04-01T11:18:49;100644.47;;;11.48;85.62
46942;BME280;32676;52.630;4.896;2023-04-01T11:21:32;100645.28;;;11.50;85.68
46942;BME280;32676;52.630;4.896;2023-04-01T11:24:09;100658.31;;;11.53;85.34
46942;BME280;32676;52.630;4.896;2023-04-01T11:26:41;100686.13;;;11.61;85.32
46942;BME280;32676;52.630;4.896;2023-04-01T11:29:18;100716.56;;;11.68;85.11
46942;BME280;32676;52.630;4.896;2023-04-01T11:31:50;100760.94;;;11.77;84.97
46942;BME280;32676;52.630;4.896;2023-04-01T11:34:32;100796.56;;;11.86;84.36
46942;BME280;32676;52.630;4.896;2023-04-01T11:37:05;100825.28;;;11.94;84.04
46942;BME280;32676;52.630;4.896;2023-04-01T11:39:41;100874.97;;;12.03;84.03
46942;BME280;32676;52.630;4.896;2023-04-01T11:42:16;100925.41;;;12.16;83.65
46942;BME280;32676;52.630;4.896;2023-04-01T11:44:47;100934.13;;;12.18;83.59
46942;BME280;32676;52.630;4.896;2023-04-01T11:50:08;100987.22;;;12.31;82.72
46942;BME280;32676;52.630;4.896;2023-04-01T11:52:44;101011.63;;;12.36;83.02
46942;BME280;32676;52.630;4.896;2023-04-01T11:55:18;101017.69;;;12.38;82.37
46942;BME280;32676;52.630;4.896;2023-04-01T11:57:51;101015.06;;;12.38;82.18
46942;BME280;32676;52.630;4.896;2023-04-01T12:00:30;101008.06;;;12.37;81.80
46942;BME280;32676;52.630;4.896;2023-04-01T12:03:09;100969.81;;;12.26;82.13
46942;BME280;32676;52.630;4.896;2023-04-01T12:05:42;100935.78;;;12.20;82.03
46942;BME280;32676;52.630;4.896;2023-04-01T12:08:21;100904.44;;;12.13;81.90
46942;BME280;32676;52.630;4.896;2023-04-01T12:10:54;100865.28;;;12.03;82.09
46942;BME280;32676;52.630;4.896;2023-04-01T12:13:26;100826.16;;;11.94;82.25
46942;BME280;32676;52.630;4.896;2023-04-01T12:15:59;100773.84;;;11.83;82.38
46942;BME280;32676;52.630;4.896;2023-04-01T12:18:33;100745.16;;;11.77;83.22
46942;BME280;32676;52.630;4.896;2023-04-01T12:21:02;100737.41;;;11.72;83.63
46942;BME280;32676;52.630;4.896;2023-04-01T12:26:30;100725.09;;;11.73;84.07
46942;BME280;32676;52.630;4.896;2023-04-01T12:29:07;100719.91;;;11.71;83.89
46942;BME280;32676;52.630;4.896;2023-04-01T12:31:38;100722.59;;;11.70;83.82
46942;BME280;32676;52.630;4.896;2023-04-01T12:36:54;100682.56;;;11.62;83.40
46942;BME280;32676;52.630;4.896;2023-04-01T12:39:44;100659.91;;;11.58;83.76
46942;BME280;32676;52.630;4.896;2023-04-01T12:42:17;100635.53;;;11.52;84.37
46942;BME280;32676;52.630;4.896;2023-04-01T12:44:56;100623.44;;;11.48;84.42
46942;BME280;32676;52.630;4.896;2023-04-01T12:50:19;100593.03;;;11.41;85.00
46942;BME280;32676;52.630;4.896;2023-04-01T12:52:55;100579.13;;;11.38;85.36
46942;BME280;32676;52.630;4.896;2023-04-01T12:55:35;100572.22;;;11.35;85.19
46942;BME280;32676;52.630;4.896;2023-04-01T13:00:58;100543.53;;;11.29;84.45
46942;BME280;32676;52.630;4.896;2023-04-01T13:03:35;100543.53;;;11.29;84.36
46942;BME280;32676;52.630;4.896;2023-04-01T13:08:55;100496.53;;;11.20;84.50
46942;BME280;32676;52.630;4.896;2023-04-01T13:11:26;100480.03;;;11.16;84.88
46942;BME280;32676;52.630;4.896;2023-04-01T13:17:00;100496.53;;;11.20;84.85
46942;BME280;32676;52.630;4.896;2023-04-01T13:19:35;100506.94;;;11.23;85.04
46942;BME280;32676;52.630;4.896;2023-04-01T13:22:05;100513.91;;;11.24;84.84
46942;BME280;32676;52.630;4.896;2023-04-01T13:24:37;100506.06;;;11.22;84.68
46942;BME280;32676;52.630;4.896;2023-04-01T13:27:07;100495.69;;;11.19;84.67
46942;BME280;32676;52.630;4.896;2023-04-01T13:29:36;100461.81;;;11.11;84.10
46942;BME280;32676;52.630;4.896;2023-04-01T13:32:10;100441.03;;;11.05;84.17
46942;BME280;32676;52.630;4.896;2023-04-01T13:34:45;100387.09;;;10.95;84.37
46942;BME280;32676;52.630;4.896;2023-04-01T13:37:29;100360.22;;;10.88;84.44
46942;BME280;32676;52.630;4.896;2023-04-01T13:40:12;100337.75;;;10.81;84.78
46942;BME280;32676;52.630;4.896;2023-04-01T13:42:43;100302.13;;;10.74;84.93
46942;BME280;32676;52.630;4.896;2023-04-01T13:45:14;100282.22;;;10.68;84.93
46942;BME280;32676;52.630;4.896;2023-04-01T13:50:35;100257.00;;;10.64;84.81
46942;BME280;32676;52.630;4.896;2023-04-01T13:53:14;100253.53;;;10.62;84.95
46942;BME280;32676;52.630;4.896;2023-04-01T13:55:58;100260.53;;;10.63;84.83
46942;BME280;32676;52.630;4.896;2023-04-01T13:58:37;100256.09;;;10.64;85.03
46942;BME280;32676;52.630;4.896;2023-04-01T14:01:05;100257.00;;;10.64;85.15
46942;BME280;32676;52.630;4.896;2023-04-01T14:06:25;100263.94;;;10.65;85.09
46942;BME280;32676;52.630;4.896;2023-04-01T14:09:11;100257.00;;;10.64;85.06
46942;BME280;32676;52.630;4.896;2023-04-01T14:11:45;100258.69;;;10.65;84.56
46942;BME280;32676;52.630;4.896;2023-04-01T14:14:18;100266.56;;;10.65;84.61
46942;BME280;32676;52.630;4.896;2023-04-01T14:16:55;100273.53;;;10.66;84.69
46942;BME280;32676;52.630;4.896;2023-04-01T14:19:26;100260.53;;;10.63;84.45
46942;BME280;32676;52.630;4.896;2023-04-01T14:22:01;100246.59;;;10.61;84.22
46942;BME280;32676;52.630;4.896;2023-04-01T14:24:45;100237.94;;;10.59;84.03
46942;BME280;32676;52.630;4.896;2023-04-01T14:27:19;100237.06;;;10.59;84.08
46942;BME280;32676;52.630;4.896;2023-04-01T14:29:53;100236.19;;;10.58;83.94
46942;BME280;32676;52.630;4.896;2023-04-01T14:32:25;100231.88;;;10.57;83.74
46942;BME280;32676;52.630;4.896;2023-04-01T14:34:59;100241.47;;;10.58;84.03
46942;BME280;32676;52.630;4.896;2023-04-01T14:37:43;100240.56;;;10.59;84.27